sensor_id;sensor_type;location;lat;lon;timestamp;pressure;altitude;pressure_sealevel;temperature;humidity
78206;BME280;67480;48.920;12.880;2023-04-28T00:00:48;97131.75;;;8.88;45.62
78206;BME280;67480;48.920;12.880;2023-04-28T00:03:14;97130.84;;;8.93;45.63
78206;BME280;67480;48.920;12.880;2023-04-28T00:05:39;97135.63;;;8.96;45.13
78206;BME280;67480;48.920;12.880;2023-04-28T00:08:05;97136.13;;;8.98;46.65
78206;BME280;67480;48.920;12.880;2023-04-28T00:10:31;97133.44;;;8.98;46.76
78206;BME280;67480;48.920;12.880;2023-04-28T00:12:56;97123.88;;;8.92;47.16
78206;BME280;67480;48.920;12.880;2023-04-28T00:15:21;97132.84;;;8.87;46.80
78206;BME280;67480;48.920;12.880;2023-04-28T00:17:47;97132.75;;;8.93;46.78
78206;BME280;67480;48.920;12.880;2023-04-28T00:20:12;97128.06;;;8.98;46.98
78206;BME280;67480;48.920;12.880;2023-04-28T00:22:37;97119.22;;;8.98;46.86
78206;BME280;67480;48.920;12.880;2023-04-28T00:25:03;97124.91;;;8.96;47.30
78206;BME280;67480;48.920;12.880;2023-04-28T00:27:29;97126.38;;;8.88;47.98
78206;BME280;67480;48.920;12.880;2023-04-28T00:29:54;97128.28;;;8.88;48.14
78206;BME280;67480;48.920;12.880;2023-04-28T00:32:20;97123.88;;;8.92;47.87
78206;BME280;67480;48.920;12.880;2023-04-28T00:34:45;97123.59;;;8.94;47.07
78206;BME280;67480;48.920;12.880;2023-04-28T00:37:10;97103.53;;;8.91;46.68
78206;BME280;67480;48.920;12.880;2023-04-28T00:39:36;97099.72;;;8.92;46.99
78206;BME280;67480;48.920;12.880;2023-04-28T00:42:01;97097.03;;;8.92;47.23
78206;BME280;67480;48.920;12.880;2023-04-28T00:44:28;97098.84;;;8.97;47.82
78206;BME280;67480;48.920;12.880;2023-04-28T00:46:55;97099.25;;;8.90;48.02
78206;BME280;67480;48.920;12.880;2023-04-28T00:49:20;97103.41;;;8.82;47.95
78206;BME280;67480;48.920;12.880;2023-04-28T00:51:46;97102.31;;;8.83;47.58
78206;BME280;67480;48.920;12.880;2023-04-28T00:54:14;97108.47;;;8.84;47.43
78206;BME280;67480;48.920;12.880;2023-04-28T00:56:39;97093.28;;;8.93;47.52
78206;BME280;67480;48.920;12.880;2023-04-28T00:59:05;97093.69;;;8.86;47.68
78206;BME280;67480;48.920;12.880;2023-04-28T01:01:30;97102.81;;;8.85;48.12
78206;BME280;67480;48.920;12.880;2023-04-28T01:03:56;97101.84;;;8.81;46.88
78206;BME280;67480;48.920;12.880;2023-04-28T01:06:22;97087.72;;;8.90;46.77
78206;BME280;67480;48.920;12.880;2023-04-28T01:08:48;97093.78;;;8.95;46.68
78206;BME280;67480;48.920;12.880;2023-04-28T01:11:15;97089.22;;;8.96;47.43
78206;BME280;67480;48.920;12.880;2023-04-28T01:13:40;97093.47;;;8.97;47.23
78206;BME280;67480;48.920;12.880;2023-04-28T01:16:06;97091.19;;;8.90;47.21
78206;BME280;67480;48.920;12.880;2023-04-28T01:18:32;97092.09;;;8.99;47.29
78206;BME280;67480;48.920;12.880;2023-04-28T01:20:58;97097.03;;;8.92;46.95
78206;BME280;67480;48.920;12.880;2023-04-28T01:23:24;97094.97;;;9.03;46.62
78206;BME280;67480;48.920;12.880;2023-04-28T01:25:49;97099.72;;;9.06;46.67
78206;BME280;67480;48.920;12.880;2023-04-28T01:28:14;97093.16;;;8.98;47.32
78206;BME280;67480;48.920;12.880;2023-04-28T01:30:40;97094.28;;;8.97;46.96
78206;BME280;67480;48.920;12.880;2023-04-28T01:33:05;97089.22;;;8.96;46.99
78206;BME280;67480;48.920;12.880;2023-04-28T01:35:32;97090.00;;;8.96;46.72
78206;BME280;67480;48.920;12.880;2023-04-28T01:37:57;97088.69;;;8.94;46.71
78206;BME280;67480;48.920;12.880;2023-04-28T01:40:22;97083.34;;;8.94;46.49
78206;BME280;67480;48.920;12.880;2023-04-28T01:42:47;97079.44;;;9.00;45.99
78206;BME280;67480;48.920;12.880;2023-04-28T01:45:13;97072.81;;;8.97;46.16
78206;BME280;67480;48.920;12.880;2023-04-28T01:47:38;97075.69;;;9.01;46.54
78206;BME280;67480;48.920;12.880;2023-04-28T01:50:04;97078.06;;;9.02;46.32
78206;BME280;67480;48.920;12.880;2023-04-28T01:52:30;97083.63;;;9.06;46.94
78206;BME280;67480;48.920;12.880;2023-04-28T01:54:55;97080.94;;;9.06;47.60
78206;BME280;67480;48.920;12.880;2023-04-28T01:57:21;97079.22;;;9.10;47.46
78206;BME280;67480;48.920;12.880;2023-04-28T01:59:46;97076.53;;;9.10;46.67
78206;BME280;67480;48.920;12.880;2023-04-28T02:02:11;97077.47;;;9.05;46.94
78206;BME280;67480;48.920;12.880;2023-04-28T02:04:37;97086.91;;;9.03;47.52
78206;BME280;67480;48.920;12.880;2023-04-28T02:07:03;97084.41;;;9.06;47.15
78206;BME280;67480;48.920;12.880;2023-04-28T02:09:32;97083.94;;;9.04;46.22
78206;BME280;67480;48.920;12.880;2023-04-28T02:11:58;97080.75;;;9.02;46.20
78206;BME280;67480;48.920;12.880;2023-04-28T02:14:27;97079.63;;;9.03;46.90
78206;BME280;67480;48.920;12.880;2023-04-28T02:16:52;97075.97;;;8.99;47.27
78206;BME280;67480;48.920;12.880;2023-04-28T02:19:18;97081.34;;;8.99;47.58
78206;BME280;67480;48.920;12.880;2023-04-28T02:21:43;97079.47;;;8.86;47.56
78206;BME280;67480;48.920;12.880;2023-04-28T02:24:08;97078.84;;;8.89;47.41
78206;BME280;67480;48.920;12.880;2023-04-28T02:26:34;97079.38;;;8.91;47.00
78206;BME280;67480;48.920;12.880;2023-04-28T02:28:59;97084.03;;;8.99;47.07
78206;BME280;67480;48.920;12.880;2023-04-28T02:31:25;97074.56;;;9.02;47.61
78206;BME280;67480;48.920;12.880;2023-04-28T02:33:50;97071.22;;;8.96;47.06
78206;BME280;67480;48.920;12.880;2023-04-28T02:36:16;97063.75;;;8.93;47.17
78206;BME280;67480;48.920;12.880;2023-04-28T02:38:41;97062.97;;;8.93;47.01
78206;BME280;67480;48.920;12.880;2023-04-28T02:41:07;97065.94;;;8.91;47.33
78206;BME280;67480;48.920;12.880;2023-04-28T02:43:33;97062.75;;;8.89;47.60
78206;BME280;67480;48.920;12.880;2023-04-28T02:45:59;97057.00;;;8.96;46.46
78206;BME280;67480;48.920;12.880;2023-04-28T02:48:25;97046.06;;;8.92;46.84
78206;BME280;67480;48.920;12.880;2023-04-28T02:50:51;97045.63;;;8.99;47.53
78206;BME280;67480;48.920;12.880;2023-04-28T02:53:18;97041.88;;;9.00;47.01
78206;BME280;67480;48.920;12.880;2023-04-28T02:55:44;97043.28;;;8.97;46.42
78206;BME280;67480;48.920;12.880;2023-04-28T02:58:09;97036.81;;;8.98;46.09
78206;BME280;67480;48.920;12.880;2023-04-28T03:00:34;97030.53;;;9.03;46.04
78206;BME280;67480;48.920;12.880;2023-04-28T03:03:00;97034.69;;;9.09;46.18
78206;BME280;67480;48.920;12.880;2023-04-28T03:05:26;97045.75;;;9.08;46.93
78206;BME280;67480;48.920;12.880;2023-04-28T03:07:51;97033.94;;;8.95;47.92
78206;BME280;67480;48.920;12.880;2023-04-28T03:10:17;97029.56;;;8.85;48.19
78206;BME280;67480;48.920;12.880;2023-04-28T03:12:42;97028.19;;;8.74;47.92
78206;BME280;67480;48.920;12.880;2023-04-28T03:15:07;97026.59;;;8.73;47.45
78206;BME280;67480;48.920;12.880;2023-04-28T03:17:34;97031.38;;;8.76;47.59
78206;BME280;67480;48.920;12.880;2023-04-28T03:20:01;97025.59;;;8.82;47.44
78206;BME280;67480;48.920;12.880;2023-04-28T03:22:27;97035.25;;;8.83;48.06
78206;BME280;67480;48.920;12.880;2023-04-28T03:24:52;97031.16;;;8.72;47.96
78206;BME280;67480;48.920;12.880;2023-04-28T03:27:17;97031.66;;;8.74;47.41
78206;BME280;67480;48.920;12.880;2023-04-28T03:29:43;97035.94;;;8.75;47.48
78206;BME280;67480;48.920;12.880;2023-04-28T03:32:08;97034.88;;;8.76;47.84
78206;BME280;67480;48.920;12.880;2023-04-28T03:34:33;97031.78;;;8.69;48.05
78206;BME280;67480;48.920;12.880;2023-04-28T03:36:58;97036.34;;;8.68;47.48
78206;BME280;67480;48.920;12.880;2023-04-28T03:39:24;97033.66;;;8.68;47.95
78206;BME280;67480;48.920;12.880;2023-04-28T03:41:49;97039.44;;;8.62;48.42
78206;BME280;67480;48.920;12.880;2023-04-28T03:44:15;97036.34;;;8.68;47.90
78206;BME280;67480;48.920;12.880;2023-04-28T03:46:40;97023.72;;;8.69;47.87
78206;BME280;67480;48.920;12.880;2023-04-28T03:49:05;97027.50;;;8.68;48.16
78206;BME280;67480;48.920;12.880;2023-04-28T03:51:31;97021.75;;;8.75;47.84
78206;BME280;67480;48.920;12.880;2023-04-28T03:53:57;97016.06;;;8.76;48.40
78206;BME280;67480;48.920;12.880;2023-04-28T03:56:22;97023.22;;;8.67;48.56
78206;BME280;67480;48.920;12.880;2023-04-28T03:58:48;97024.91;;;8.63;48.84
78206;BME280;67480;48.920;12.880;2023-04-28T04:01:13;97023.94;;;8.59;48.32
78206;BME280;67480;48.920;12.880;2023-04-28T04:03:38;97022.22;;;8.63;48.34
78206;BME280;67480;48.920;12.880;2023-04-28T04:06:04;97020.66;;;8.62;47.56
78206;BME280;67480;48.920;12.880;2023-04-28T04:08:29;97020.03;;;8.79;48.17
78206;BME280;67480;48.920;12.880;2023-04-28T04:10:56;97016.34;;;8.88;48.23
78206;BME280;67480;48.920;12.880;2023-04-28T04:13:21;97019.72;;;8.94;48.40
78206;BME280;67480;48.920;12.880;2023-04-28T04:15:47;97020.63;;;8.90;48.33
78206;BME280;67480;48.920;12.880;2023-04-28T04:18:12;97017.13;;;8.89;47.85
78206;BME280;67480;48.920;12.880;2023-04-28T04:20:39;97007.56;;;8.97;47.85
78206;BME280;67480;48.920;12.880;2023-04-28T04:23:04;97014.63;;;9.06;47.59
78206;BME280;67480;48.920;12.880;2023-04-28T04:25:29;97011.06;;;8.97;48.36
78206;BME280;67480;48.920;12.880;2023-04-28T04:27:55;97007.47;;;9.02;48.39
78206;BME280;67480;48.920;12.880;2023-04-28T04:30:20;97005.47;;;9.08;48.74
78206;BME280;67480;48.920;12.880;2023-04-28T04:32:45;97003.69;;;9.03;48.15
78206;BME280;67480;48.920;12.880;2023-04-28T04:35:11;97008.16;;;9.08;47.99
78206;BME280;67480;48.920;12.880;2023-04-28T04:37:36;97015.69;;;9.19;47.58
78206;BME280;67480;48.920;12.880;2023-04-28T04:40:02;97016.56;;;9.29;47.87
78206;BME280;67480;48.920;12.880;2023-04-28T04:42:27;97028.78;;;9.35;47.97
78206;BME280;67480;48.920;12.880;2023-04-28T04:44:52;97027.53;;;9.41;48.18
78206;BME280;67480;48.920;12.880;2023-04-28T04:47:18;97025.09;;;9.45;47.59
78206;BME280;67480;48.920;12.880;2023-04-28T04:49:43;97021.16;;;9.51;47.43
78206;BME280;67480;48.920;12.880;2023-04-28T04:52:08;97013.78;;;9.56;47.50
78206;BME280;67480;48.920;12.880;2023-04-28T04:54:34;97012.16;;;9.69;46.61
78206;BME280;67480;48.920;12.880;2023-04-28T04:56:59;97003.06;;;9.88;47.19
78206;BME280;67480;48.920;12.880;2023-04-28T04:59:25;97003.41;;;9.95;48.01
78206;BME280;67480;48.920;12.880;2023-04-28T05:01:51;96996.38;;;10.08;47.66
78206;BME280;67480;48.920;12.880;2023-04-28T05:04:16;97002.91;;;10.15;47.34
78206;BME280;67480;48.920;12.880;2023-04-28T05:06:41;96999.06;;;10.39;46.67
78206;BME280;67480;48.920;12.880;2023-04-28T05:09:07;97001.91;;;10.51;46.54
78206;BME280;67480;48.920;12.880;2023-04-28T05:11:32;96988.47;;;10.51;46.22
78206;BME280;67480;48.920;12.880;2023-04-28T05:13:57;96988.97;;;10.62;45.78
78206;BME280;67480;48.920;12.880;2023-04-28T05:16:23;96991.50;;;10.59;45.14
78206;BME280;67480;48.920;12.880;2023-04-28T05:18:48;96978.69;;;10.64;46.38
78206;BME280;67480;48.920;12.880;2023-04-28T05:21:13;96979.66;;;10.77;46.95
78206;BME280;67480;48.920;12.880;2023-04-28T05:23:38;96983.53;;;10.85;46.78
78206;BME280;67480;48.920;12.880;2023-04-28T05:26:04;96976.41;;;10.98;46.75
78206;BME280;67480;48.920;12.880;2023-04-28T05:28:30;96985.44;;;11.02;47.20
78206;BME280;67480;48.920;12.880;2023-04-28T05:30:55;96977.03;;;11.12;48.05
78206;BME280;67480;48.920;12.880;2023-04-28T05:33:21;96977.53;;;11.23;48.37
78206;BME280;67480;48.920;12.880;2023-04-28T05:35:48;96976.72;;;11.31;48.03
78206;BME280;67480;48.920;12.880;2023-04-28T05:38:13;96972.28;;;11.44;47.54
78206;BME280;67480;48.920;12.880;2023-04-28T05:40:39;96974.16;;;11.61;47.46
78206;BME280;67480;48.920;12.880;2023-04-28T05:43:04;96974.75;;;11.75;47.35
78206;BME280;67480;48.920;12.880;2023-04-28T05:45:29;96972.03;;;11.93;47.29
78206;BME280;67480;48.920;12.880;2023-04-28T05:47:55;96979.28;;;12.19;47.96
78206;BME280;67480;48.920;12.880;2023-04-28T05:50:20;96976.13;;;12.46;46.54
78206;BME280;67480;48.920;12.880;2023-04-28T05:52:46;96981.34;;;12.51;45.37
78206;BME280;67480;48.920;12.880;2023-04-28T05:55:11;96976.56;;;12.19;45.09
78206;BME280;67480;48.920;12.880;2023-04-28T05:57:36;96967.84;;;12.13;45.69
78206;BME280;67480;48.920;12.880;2023-04-28T06:00:02;96972.94;;;12.06;44.20
78206;BME280;67480;48.920;12.880;2023-04-28T06:02:28;96974.75;;;11.84;45.87
78206;BME280;67480;48.920;12.880;2023-04-28T06:04:53;96969.19;;;11.80;46.24
78206;BME280;67480;48.920;12.880;2023-04-28T06:07:18;96972.00;;;12.02;46.55
78206;BME280;67480;48.920;12.880;2023-04-28T06:09:43;96979.06;;;11.76;43.36
78206;BME280;67480;48.920;12.880;2023-04-28T06:12:09;96976.38;;;11.59;43.66
78206;BME280;67480;48.920;12.880;2023-04-28T06:14:34;96991.22;;;11.91;43.05
78206;BME280;67480;48.920;12.880;2023-04-28T06:17:02;96981.03;;;12.06;43.30
78206;BME280;67480;48.920;12.880;2023-04-28T06:19:27;96992.47;;;12.03;41.67
78206;BME280;67480;48.920;12.880;2023-04-28T06:21:52;96999.59;;;12.16;41.26
78206;BME280;67480;48.920;12.880;2023-04-28T06:24:18;96991.63;;;12.28;41.42
78206;BME280;67480;48.920;12.880;2023-04-28T06:26:43;97002.81;;;12.39;41.92
78206;BME280;67480;48.920;12.880;2023-04-28T06:29:08;97002.81;;;12.48;41.36
78206;BME280;67480;48.920;12.880;2023-04-28T06:31:34;96985.25;;;12.63;41.40
78206;BME280;67480;48.920;12.880;2023-04-28T06:33:59;96992.38;;;12.67;41.68
78206;BME280;67480;48.920;12.880;2023-04-28T06:36:24;96991.25;;;12.68;41.63
78206;BME280;67480;48.920;12.880;2023-04-28T06:38:50;96984.22;;;12.76;41.37
78206;BME280;67480;48.920;12.880;2023-04-28T06:41:16;96988.03;;;12.75;40.03
78206;BME280;67480;48.920;12.880;2023-04-28T06:43:41;96990.50;;;12.89;41.10
78206;BME280;67480;48.920;12.880;2023-04-28T06:46:06;96984.66;;;13.08;40.91
78206;BME280;67480;48.920;12.880;2023-04-28T06:48:32;96979.59;;;13.06;40.65
78206;BME280;67480;48.920;12.880;2023-04-28T06:50:57;96981.81;;;13.25;40.36
78206;BME280;67480;48.920;12.880;2023-04-28T06:53:23;96982.97;;;13.46;39.09
78206;BME280;67480;48.920;12.880;2023-04-28T06:55:48;96977.84;;;13.65;39.93
78206;BME280;67480;48.920;12.880;2023-04-28T06:58:13;96979.91;;;13.80;39.33
78206;BME280;67480;48.920;12.880;2023-04-28T07:00:39;96973.94;;;13.75;39.03
78206;BME280;67480;48.920;12.880;2023-04-28T07:03:05;96967.69;;;13.62;39.96
78206;BME280;67480;48.920;12.880;2023-04-28T07:05:31;96974.22;;;13.61;39.08
78206;BME280;67480;48.920;12.880;2023-04-28T07:07:57;96973.25;;;13.44;39.36
78206;BME280;67480;48.920;12.880;2023-04-28T07:10:22;96978.16;;;13.30;38.85
78206;BME280;67480;48.920;12.880;2023-04-28T07:12:49;96968.06;;;13.39;38.61
78206;BME280;67480;48.920;12.880;2023-04-28T07:15:14;96976.75;;;13.45;39.32
78206;BME280;67480;48.920;12.880;2023-04-28T07:17:40;96982.09;;;13.12;41.15
78206;BME280;67480;48.920;12.880;2023-04-28T07:20:05;96980.94;;;12.92;40.64
78206;BME280;67480;48.920;12.880;2023-04-28T07:22:31;96974.63;;;12.87;40.88
78206;BME280;67480;48.920;12.880;2023-04-28T07:24:56;96966.63;;;12.70;41.15
78206;BME280;67480;48.920;12.880;2023-04-28T07:27:22;96963.97;;;12.61;40.93
78206;BME280;67480;48.920;12.880;2023-04-28T07:29:47;96975.78;;;12.78;41.88
78206;BME280;67480;48.920;12.880;2023-04-28T07:32:12;96974.84;;;13.03;41.47
78206;BME280;67480;48.920;12.880;2023-04-28T07:34:38;96973.44;;;12.97;41.59
78206;BME280;67480;48.920;12.880;2023-04-28T07:37:03;96975.81;;;13.20;41.32
78206;BME280;67480;48.920;12.880;2023-04-28T07:39:30;96963.53;;;13.01;40.55
78206;BME280;67480;48.920;12.880;2023-04-28T07:41:56;96965.53;;;12.92;40.18
78206;BME280;67480;48.920;12.880;2023-04-28T07:44:23;96967.44;;;12.92;40.64
78206;BME280;67480;48.920;12.880;2023-04-28T07:46:48;96968.63;;;13.03;41.47
78206;BME280;67480;48.920;12.880;2023-04-28T07:49:14;96970.50;;;12.90;41.61
78206;BME280;67480;48.920;12.880;2023-04-28T07:51:39;96960.31;;;12.66;41.34
78206;BME280;67480;48.920;12.880;2023-04-28T07:54:04;96972.00;;;12.79;41.82
78206;BME280;67480;48.920;12.880;2023-04-28T07:56:30;96969.81;;;12.93;40.99
78206;BME280;67480;48.920;12.880;2023-04-28T07:58:55;96961.38;;;12.95;40.17
78206;BME280;67480;48.920;12.880;2023-04-28T08:01:21;96965.47;;;13.01;40.37
78206;BME280;67480;48.920;12.880;2023-04-28T08:03:46;96968.91;;;13.10;39.28
78206;BME280;67480;48.920;12.880;2023-04-28T08:06:12;96984.19;;;13.06;39.81
78206;BME280;67480;48.920;12.880;2023-04-28T08:08:37;96975.34;;;12.76;39.85
78206;BME280;67480;48.920;12.880;2023-04-28T08:11:03;96978.94;;;12.80;40.94
78206;BME280;67480;48.920;12.880;2023-04-28T08:13:29;96977.19;;;12.84;40.97
78206;BME280;67480;48.920;12.880;2023-04-28T08:15:54;96974.78;;;13.33;40.39
78206;BME280;67480;48.920;12.880;2023-04-28T08:18:21;96971.06;;;13.59;39.19
78206;BME280;67480;48.920;12.880;2023-04-28T08:20:46;96975.16;;;13.77;39.52
78206;BME280;67480;48.920;12.880;2023-04-28T08:23:12;96979.50;;;14.03;39.28
78206;BME280;67480;48.920;12.880;2023-04-28T08:25:37;96973.31;;;14.03;37.77
78206;BME280;67480;48.920;12.880;2023-04-28T08:28:02;96977.13;;;14.02;39.85
78206;BME280;67480;48.920;12.880;2023-04-28T08:30:28;96968.97;;;14.47;37.98
78206;BME280;67480;48.920;12.880;2023-04-28T08:32:54;96994.22;;;14.88;38.10
78206;BME280;67480;48.920;12.880;2023-04-28T08:35:19;96984.44;;;15.24;36.49
78206;BME280;67480;48.920;12.880;2023-04-28T08:37:44;96991.81;;;15.52;37.31
78206;BME280;67480;48.920;12.880;2023-04-28T08:40:11;96993.81;;;17.11;35.70
78206;BME280;67480;48.920;12.880;2023-04-28T08:42:37;96995.56;;;17.58;33.61
78206;BME280;67480;48.920;12.880;2023-04-28T08:45:03;97006.50;;;18.70;33.37
78206;BME280;67480;48.920;12.880;2023-04-28T08:47:32;97002.38;;;18.11;32.85
78206;BME280;67480;48.920;12.880;2023-04-28T08:50:05;97008.16;;;17.86;33.76
78206;BME280;67480;48.920;12.880;2023-04-28T08:52:32;97008.59;;;17.14;33.97
78206;BME280;67480;48.920;12.880;2023-04-28T08:54:59;97015.88;;;16.58;34.49
78206;BME280;67480;48.920;12.880;2023-04-28T08:57:43;97014.44;;;16.00;36.08
78206;BME280;67480;48.920;12.880;2023-04-28T09:00:10;97010.16;;;15.31;37.34
78206;BME280;67480;48.920;12.880;2023-04-28T09:02:35;97010.09;;;15.15;38.92
78206;BME280;67480;48.920;12.880;2023-04-28T09:05:12;97005.53;;;14.53;38.91
78206;BME280;67480;48.920;12.880;2023-04-28T09:07:38;97002.91;;;14.32;39.51
78206;BME280;67480;48.920;12.880;2023-04-28T09:12:42;96999.88;;;14.59;40.00
78206;BME280;67480;48.920;12.880;2023-04-28T09:15:08;97000.84;;;14.29;39.98
78206;BME280;67480;48.920;12.880;2023-04-28T09:17:46;97005.78;;;14.15;40.86
78206;BME280;67480;48.920;12.880;2023-04-28T09:20:26;96999.56;;;14.02;41.53
78206;BME280;67480;48.920;12.880;2023-04-28T09:22:54;96993.28;;;14.10;41.89
78206;BME280;67480;48.920;12.880;2023-04-28T09:25:20;97000.16;;;14.20;43.04
78206;BME280;67480;48.920;12.880;2023-04-28T09:27:49;96986.53;;;14.29;42.56
78206;BME280;67480;48.920;12.880;2023-04-28T09:30:15;96989.06;;;14.00;42.88
78206;BME280;67480;48.920;12.880;2023-04-28T09:32:41;96984.81;;;14.12;42.73
78206;BME280;67480;48.920;12.880;2023-04-28T09:35:07;96983.38;;;14.14;43.17
78206;BME280;67480;48.920;12.880;2023-04-28T09:37:33;96988.00;;;14.14;43.48
78206;BME280;67480;48.920;12.880;2023-04-28T09:40:09;96973.91;;;14.21;43.20
78206;BME280;67480;48.920;12.880;2023-04-28T09:42:42;96976.25;;;14.10;43.39
78206;BME280;67480;48.920;12.880;2023-04-28T09:45:11;96964.50;;;14.06;43.82
78206;BME280;67480;48.920;12.880;2023-04-28T09:47:41;96964.13;;;13.83;44.55
78206;BME280;67480;48.920;12.880;2023-04-28T09:50:13;96959.31;;;13.55;44.59
78206;BME280;67480;48.920;12.880;2023-04-28T09:52:55;96961.78;;;13.48;44.84
78206;BME280;67480;48.920;12.880;2023-04-28T09:55:21;96954.91;;;13.50;45.66
78206;BME280;67480;48.920;12.880;2023-04-28T09:57:48;96956.81;;;13.50;46.58
78206;BME280;67480;48.920;12.880;2023-04-28T10:00:14;96952.19;;;13.50;48.53
78206;BME280;67480;48.920;12.880;2023-04-28T10:02:41;96953.47;;;13.53;46.15
78206;BME280;67480;48.920;12.880;2023-04-28T10:05:08;96956.88;;;13.62;45.32
78206;BME280;67480;48.920;12.880;2023-04-28T10:07:33;96941.94;;;13.77;46.10
78206;BME280;67480;48.920;12.880;2023-04-28T10:10:00;96943.50;;;13.78;46.79
78206;BME280;67480;48.920;12.880;2023-04-28T10:12:26;96953.50;;;13.65;48.07
78206;BME280;67480;48.920;12.880;2023-04-28T10:14:52;96947.41;;;13.68;47.93
78206;BME280;67480;48.920;12.880;2023-04-28T10:17:21;96945.59;;;13.60;48.08
78206;BME280;67480;48.920;12.880;2023-04-28T10:19:48;96942.22;;;13.63;48.09
78206;BME280;67480;48.920;12.880;2023-04-28T10:25:26;96947.28;;;13.52;50.15
78206;BME280;67480;48.920;12.880;2023-04-28T10:27:52;96942.53;;;13.49;50.35
78206;BME280;67480;48.920;12.880;2023-04-28T10:30:20;96930.56;;;13.50;49.29
78206;BME280;67480;48.920;12.880;2023-04-28T10:32:46;96929.00;;;13.49;52.11
78206;BME280;67480;48.920;12.880;2023-04-28T10:40:51;96919.75;;;13.50;50.12
78206;BME280;67480;48.920;12.880;2023-04-28T10:58:56;96901.69;;;13.30;55.43
78206;BME280;67480;48.920;12.880;2023-04-28T11:08:52;96888.72;;;13.02;55.91
78206;BME280;67480;48.920;12.880;2023-04-28T11:13:46;96901.28;;;13.19;53.80
78206;BME280;67480;48.920;12.880;2023-04-28T11:16:17;96891.22;;;13.28;53.91
78206;BME280;67480;48.920;12.880;2023-04-28T11:18:57;96893.84;;;12.95;54.05
78206;BME280;67480;48.920;12.880;2023-04-28T11:21:25;96893.47;;;13.05;52.43
78206;BME280;67480;48.920;12.880;2023-04-28T11:23:52;96898.88;;;13.05;53.13
78206;BME280;67480;48.920;12.880;2023-04-28T11:26:18;96889.50;;;13.02;54.08
78206;BME280;67480;48.920;12.880;2023-04-28T11:28:48;96888.50;;;13.07;53.90
78206;BME280;67480;48.920;12.880;2023-04-28T11:31:15;96891.22;;;12.86;56.80
78206;BME280;67480;48.920;12.880;2023-04-28T11:33:58;96884.84;;;12.90;56.29
78206;BME280;67480;48.920;12.880;2023-04-28T11:36:29;96883.53;;;12.97;57.55
78206;BME280;67480;48.920;12.880;2023-04-28T11:38:57;96891.56;;;12.84;58.27
78206;BME280;67480;48.920;12.880;2023-04-28T11:41:22;96902.59;;;12.92;58.75
78206;BME280;67480;48.920;12.880;2023-04-28T11:43:48;96897.41;;;12.86;59.12
78206;BME280;67480;48.920;12.880;2023-04-28T11:46:18;96896.88;;;12.93;58.63
78206;BME280;67480;48.920;12.880;2023-04-28T11:48:44;96907.84;;;12.97;58.46
78206;BME280;67480;48.920;12.880;2023-04-28T11:51:29;96910.38;;;12.93;58.69
78206;BME280;67480;48.920;12.880;2023-04-28T11:53:55;96902.28;;;12.93;58.07
78206;BME280;67480;48.920;12.880;2023-04-28T11:56:20;96888.13;;;12.96;57.91
78206;BME280;67480;48.920;12.880;2023-04-28T11:58:45;96890.34;;;13.15;57.17
78206;BME280;67480;48.920;12.880;2023-04-28T12:01:11;96883.34;;;13.35;57.07
78206;BME280;67480;48.920;12.880;2023-04-28T12:03:46;96881.63;;;13.31;57.34
78206;BME280;67480;48.920;12.880;2023-04-28T12:06:16;96879.28;;;13.08;58.21
78206;BME280;67480;48.920;12.880;2023-04-28T12:08:42;96869.00;;;13.01;58.25
78206;BME280;67480;48.920;12.880;2023-04-28T12:11:12;96856.50;;;12.97;57.26
78206;BME280;67480;48.920;12.880;2023-04-28T12:13:38;96859.25;;;13.09;58.64
78206;BME280;67480;48.920;12.880;2023-04-28T12:16:04;96864.41;;;13.02;57.98
78206;BME280;67480;48.920;12.880;2023-04-28T12:18:34;96865.09;;;13.11;58.49
78206;BME280;67480;48.920;12.880;2023-04-28T12:21:03;96877.00;;;12.77;58.78
78206;BME280;67480;48.920;12.880;2023-04-28T12:23:34;96887.63;;;12.61;59.06
78206;BME280;67480;48.920;12.880;2023-04-28T12:26:00;96895.81;;;12.43;58.87
78206;BME280;67480;48.920;12.880;2023-04-28T12:28:38;96877.44;;;12.37;58.71
78206;BME280;67480;48.920;12.880;2023-04-28T12:31:05;96859.66;;;12.35;60.35
78206;BME280;67480;48.920;12.880;2023-04-28T12:33:32;96875.03;;;12.14;61.69
78206;BME280;67480;48.920;12.880;2023-04-28T12:36:05;96872.66;;;12.12;62.03
78206;BME280;67480;48.920;12.880;2023-04-28T12:38:31;96869.72;;;12.26;61.71
78206;BME280;67480;48.920;12.880;2023-04-28T12:40:57;96874.50;;;12.21;61.62
78206;BME280;67480;48.920;12.880;2023-04-28T12:43:23;96879.78;;;12.17;62.33
78206;BME280;67480;48.920;12.880;2023-04-28T12:45:49;96880.09;;;12.15;62.15
78206;BME280;67480;48.920;12.880;2023-04-28T12:48:15;96884.00;;;12.27;62.64
78206;BME280;67480;48.920;12.880;2023-04-28T12:50:40;96875.69;;;12.11;62.10
78206;BME280;67480;48.920;12.880;2023-04-28T12:53:05;96884.53;;;12.20;62.46
78206;BME280;67480;48.920;12.880;2023-04-28T12:55:31;96880.59;;;12.00;62.59
78206;BME280;67480;48.920;12.880;2023-04-28T12:57:56;96883.88;;;11.85;62.98
78206;BME280;67480;48.920;12.880;2023-04-28T13:00:21;96887.06;;;11.69;63.29
78206;BME280;67480;48.920;12.880;2023-04-28T13:02:49;96882.00;;;11.68;63.76
78206;BME280;67480;48.920;12.880;2023-04-28T13:05:14;96886.25;;;11.77;63.43
78206;BME280;67480;48.920;12.880;2023-04-28T13:07:40;96879.13;;;11.82;63.46
78206;BME280;67480;48.920;12.880;2023-04-28T13:10:06;96876.13;;;11.74;64.00
78206;BME280;67480;48.920;12.880;2023-04-28T13:12:32;96868.16;;;11.87;64.22
78206;BME280;67480;48.920;12.880;2023-04-28T13:14:58;96867.44;;;11.98;62.90
78206;BME280;67480;48.920;12.880;2023-04-28T13:17:25;96859.34;;;11.98;62.37
78206;BME280;67480;48.920;12.880;2023-04-28T13:19:51;96863.50;;;11.96;62.80
78206;BME280;67480;48.920;12.880;2023-04-28T13:22:16;96866.72;;;11.89;62.84
78206;BME280;67480;48.920;12.880;2023-04-28T13:24:42;96856.06;;;11.93;63.08
78206;BME280;67480;48.920;12.880;2023-04-28T13:27:07;96856.84;;;11.93;63.18